Terminal Aerodrome Forecast
Issued by NWS

Home | Current Version | Previous Version | Text Only | Print | Product List | Glossary On
Versions: 1 2 3 4 5 6 7 8 9 10 11 12 13 14 15 16
000
FTUS46 KMTR 221304 AAA
TAFSNS
TAF AMD
KSNS 221304Z 2213/2312 14005KT P6SM FEW015 SCT030
     FM221600 25004KT P6SM SCT025
     FM222100 27011KT P6SM FEW035
     FM230300 26005KT P6SM BKN025=

USA.gov is the U.S. government's official web portal to all federal, state and local government web resources and services.